Time,TemperatureF,DewpointF,PressureIn,WindDirection,WindDirectionDegrees,WindSpeedMPH,WindSpeedGustMPH,Humidity,HourlyPrecipIn,Conditions,Clouds,dailyrainin,SoftwareType,DateUTC
2013-02-17 00:03:00,16.2,8.4,30.11,ENE,68,0.7,1.6,71,0.00,CLR,FEW,0.00,WeatherDisplay:10.37,2013-02-17 06:03:00,
2013-02-17 00:09:00,16.0,7.9,30.11,East,90,1.6,3.1,70,0.00,CLR,FEW,0.00,WeatherDisplay:10.37,2013-02-17 06:09:00,
2013-02-17 00:14:00,16.0,7.9,30.11,East,90,0.7,2.3,70,0.00,CLR,FEW,0.00,WeatherDisplay:10.37,2013-02-17 06:14:00,
2013-02-17 00:20:00,16.0,3.8,30.11,NE,45,0.7,3.5,58,0.00,CLR,FEW,0.00,WeatherDisplay:10.37,2013-02-17 06:20:00,
2013-02-17 00:26:00,16.0,7.9,30.11,SE,135,0.0,3.5,70,0.00,CLR,FEW,0.00,WeatherDisplay:10.37,2013-02-17 06:26:00,
2013-02-17 00:31:00,16.0,3.8,30.11,SE,135,0.7,3.5,58,0.00,CLR,FEW,0.00,WeatherDisplay:10.37,2013-02-17 06:31:00,
2013-02-17 00:37:00,16.0,3.8,30.11,East,90,0.7,2.3,58,0.00,CLR,FEW,0.00,WeatherDisplay:10.37,2013-02-17 06:37:00,
2013-02-17 00:42:00,15.8,3.6,30.11,East,90,1.6,3.8,58,0.00,CLR,FEW,0.00,WeatherDisplay:10.37,2013-02-17 06:42:00,
2013-02-17 00:48:00,15.8,3.6,30.11,East,90,0.0,2.3,58,0.00,CLR,FEW,0.00,WeatherDisplay:10.37,2013-02-17 06:48:00,
2013-02-17 00:54:00,15.6,6.6,30.11,East,90,1.6,2.3,67,0.00,CLR,FEW,0.00,WeatherDisplay:10.37,2013-02-17 06:54:00,
2013-02-17 00:59:00,15.4,3.3,30.11,SE,135,1.6,3.5,58,0.00,CLR,FEW,0.00,WeatherDisplay:10.37,2013-02-17 06:59:00,
2013-02-17 01:05:00,15.4,6.4,30.11,SE,135,0.0,1.6,67,0.00,CLR,FEW,0.00,WeatherDisplay:10.37,2013-02-17 07:05:00,
2013-02-17 01:10:00,15.4,6.4,30.11,SE,135,0.0,1.1,67,0.00,CLR,FEW,0.00,WeatherDisplay:10.37,2013-02-17 07:10:00,
2013-02-17 01:16:00,15.3,5.6,30.11,East,90,0.0,1.1,65,0.00,CLR,FEW,0.00,WeatherDisplay:10.37,2013-02-17 07:16:00,
2013-02-17 01:22:00,15.3,6.3,30.12,SE,135,0.0,3.5,67,0.00,CLR,FEW,0.00,WeatherDisplay:10.37,2013-02-17 07:22:00,
2013-02-17 01:27:00,15.3,5.6,30.11,SE,135,1.6,4.6,65,0.00,CLR,FEW,0.00,WeatherDisplay:10.37,2013-02-17 07:27:00,
2013-02-17 01:33:00,15.3,5.3,30.12,SE,135,0.7,3.5,64,0.00,CLR,FEW,0.00,WeatherDisplay:10.37,2013-02-17 07:33:00,
2013-02-17 01:38:00,15.3,5.6,30.11,East,90,0.7,3.5,65,0.00,CLR,FEW,0.00,WeatherDisplay:10.37,2013-02-17 07:38:00,
2013-02-17 01:44:00,15.1,5.4,30.11,SE,135,1.6,3.5,65,0.00,CLR,FEW,0.00,WeatherDisplay:10.37,2013-02-17 07:44:00,
2013-02-17 01:50:00,15.1,4.4,30.11,East,90,0.0,2.3,62,0.00,CLR,FEW,0.00,WeatherDisplay:10.37,2013-02-17 07:50:00,
2013-02-17 01:55:00,14.9,5.2,30.11,ESE,112,0.0,1.1,65,0.00,CLR,FEW,0.00,WeatherDisplay:10.37,2013-02-17 07:55:00,
2013-02-17 02:01:00,14.7,4.0,30.11,ESE,112,2.2,3.8,62,0.00,CLR,FEW,0.00,WeatherDisplay:10.37,2013-02-17 08:01:00,
2013-02-17 02:06:00,14.9,3.9,30.11,NE,45,0.0,3.5,61,0.00,CLR,FEW,0.00,WeatherDisplay:10.37,2013-02-17 08:06:00,
2013-02-17 02:12:00,14.7,4.7,30.11,East,90,0.0,1.1,64,0.00,CLR,FEW,0.00,WeatherDisplay:10.37,2013-02-17 08:12:00,
2013-02-17 02:18:00,14.5,4.2,30.11,SE,135,1.6,3.1,63,0.00,CLR,FEW,0.00,WeatherDisplay:10.37,2013-02-17 08:18:00,
2013-02-17 02:23:00,14.7,4.7,30.11,ESE,112,1.6,5.8,64,0.00,CLR,FEW,0.00,WeatherDisplay:10.37,2013-02-17 08:23:00,
2013-02-17 02:29:00,14.9,3.9,30.11,SE,135,1.6,3.8,61,0.00,CLR,FEW,0.00,WeatherDisplay:10.37,2013-02-17 08:29:00,
2013-02-17 02:34:00,14.7,4.7,30.11,SE,135,0.0,2.3,64,0.00,CLR,FEW,0.00,WeatherDisplay:10.37,2013-02-17 08:34:00,
2013-02-17 02:40:00,14.5,3.5,30.11,SE,135,0.0,1.1,61,0.00,CLR,FEW,0.00,WeatherDisplay:10.37,2013-02-17 08:40:00,
2013-02-17 02:46:00,14.5,4.6,30.11,East,90,0.0,1.1,64,0.00,CLR,FEW,0.00,WeatherDisplay:10.37,2013-02-17 08:46:00,
2013-02-17 02:51:00,14.7,4.7,30.11,East,90,0.0,1.1,64,0.00,CLR,FEW,0.00,WeatherDisplay:10.37,2013-02-17 08:51:00,
2013-02-17 02:57:00,14.7,4.0,30.11,South,180,1.6,3.1,62,0.00,CLR,FEW,0.00,WeatherDisplay:10.37,2013-02-17 08:57:00,
2013-02-17 03:02:00,14.7,3.7,30.11,NE,45,0.0,1.1,61,0.00,CLR,FEW,0.00,WeatherDisplay:10.37,2013-02-17 09:02:00,
2013-02-17 03:08:00,14.9,3.9,30.11,SE,135,2.2,4.6,61,0.00,CLR,FEW,0.00,WeatherDisplay:10.37,2013-02-17 09:08:00,
2013-02-17 03:14:00,14.7,3.3,30.11,East,90,1.6,3.8,60,0.00,CLR,FEW,0.00,WeatherDisplay:10.37,2013-02-17 09:14:00,
2013-02-17 03:19:00,14.7,3.7,30.11,South,180,1.6,3.5,61,0.00,CLR,FEW,0.00,WeatherDisplay:10.37,2013-02-17 09:19:00,
2013-02-17 03:25:00,14.5,3.2,30.11,South,180,1.6,3.1,60,0.00,CLR,FEW,0.00,WeatherDisplay:10.37,2013-02-17 09:25:00,
2013-02-17 03:30:00,14.7,3.7,30.11,South,180,0.0,3.5,61,0.00,CLR,FEW,0.00,WeatherDisplay:10.37,2013-02-17 09:30:00,
2013-02-17 03:36:00,14.5,3.2,30.11,SE,135,0.0,1.1,60,0.00,CLR,FEW,0.00,WeatherDisplay:10.37,2013-02-17 09:36:00,
2013-02-17 03:42:00,14.4,3.4,30.11,South,180,0.0,1.1,61,0.00,CLR,FEW,0.00,WeatherDisplay:10.37,2013-02-17 09:42:00,
2013-02-17 03:47:00,14.2,3.5,30.11,SE,135,0.0,3.5,62,0.00,CLR,FEW,0.00,WeatherDisplay:10.37,2013-02-17 09:47:00,
2013-02-17 03:53:00,14.4,3.4,30.11,East,90,1.6,3.5,61,0.00,CLR,FEW,0.00,WeatherDisplay:10.37,2013-02-17 09:53:00,
2013-02-17 03:58:00,14.2,3.2,30.11,East,90,0.0,3.5,61,0.00,CLR,FEW,0.00,WeatherDisplay:10.37,2013-02-17 09:58:00,
2013-02-17 04:04:00,14.2,4.6,30.11,East,90,0.0,3.5,65,0.00,FEW,,0.00,WeatherDisplay:10.37,2013-02-17 10:04:00,
2013-02-17 04:10:00,14.2,3.9,30.11,SSE,158,0.0,1.6,63,0.00,FEW,,0.00,WeatherDisplay:10.37,2013-02-17 10:10:00,
2013-02-17 04:15:00,14.0,4.4,30.11,East,90,0.0,1.6,65,0.00,FEW,,0.00,WeatherDisplay:10.37,2013-02-17 10:15:00,
2013-02-17 04:21:00,14.0,4.4,30.11,East,90,0.0,1.1,65,0.00,FEW,,0.00,WeatherDisplay:10.37,2013-02-17 10:21:00,
2013-02-17 04:26:00,14.2,3.9,30.11,East,90,2.2,4.5,63,0.00,FEW,,0.00,WeatherDisplay:10.37,2013-02-17 10:26:00,
2013-02-17 04:32:00,14.2,3.9,30.11,East,90,0.7,3.5,63,0.00,FEW,,0.00,WeatherDisplay:10.37,2013-02-17 10:32:00,
2013-02-17 04:38:00,14.2,4.6,30.11,SE,135,0.7,2.3,65,0.00,FEW,,0.00,WeatherDisplay:10.37,2013-02-17 10:38:00,
2013-02-17 04:43:00,14.0,4.4,30.11,South,180,0.0,2.3,65,0.00,FEW,,0.00,WeatherDisplay:10.37,2013-02-17 10:43:00,
2013-02-17 04:49:00,14.0,4.4,30.11,East,90,0.0,1.1,65,0.00,FEW,,0.00,WeatherDisplay:10.37,2013-02-17 10:49:00,
2013-02-17 04:54:00,14.2,4.6,30.11,SE,135,0.7,2.3,65,0.00,FEW,,0.00,WeatherDisplay:10.37,2013-02-17 10:54:00,
2013-02-17 05:00:00,14.0,4.1,30.12,SSE,158,0.7,4.5,64,0.00,FEW,,0.00,WeatherDisplay:10.37,2013-02-17 11:00:00,
2013-02-17 05:06:00,14.0,4.4,30.12,SE,135,0.0,1.1,65,0.00,CLR,FEW,0.00,WeatherDisplay:10.37,2013-02-17 11:06:00,
2013-02-17 05:11:00,14.0,4.4,30.12,East,90,0.0,2.3,65,0.00,CLR,FEW,0.00,WeatherDisplay:10.37,2013-02-17 11:11:00,
2013-02-17 05:17:00,14.0,4.4,30.12,East,90,0.7,2.3,65,0.00,CLR,FEW,0.00,WeatherDisplay:10.37,2013-02-17 11:17:00,
2013-02-17 05:22:00,14.0,4.1,30.12,SE,135,0.7,2.3,64,0.00,CLR,FEW,0.00,WeatherDisplay:10.37,2013-02-17 11:22:00,
2013-02-17 05:28:00,13.8,4.2,30.11,SE,135,0.0,1.1,65,0.00,CLR,FEW,0.00,WeatherDisplay:10.37,2013-02-17 11:28:00,
2013-02-17 05:34:00,13.8,4.2,30.12,East,90,0.7,3.5,65,0.00,CLR,FEW,0.00,WeatherDisplay:10.37,2013-02-17 11:34:00,
2013-02-17 05:39:00,14.0,4.1,30.12,East,90,0.0,2.3,64,0.00,CLR,FEW,0.00,WeatherDisplay:10.37,2013-02-17 11:39:00,
2013-02-17 05:45:00,13.8,3.9,30.11,East,90,0.0,2.3,64,0.00,CLR,FEW,0.00,WeatherDisplay:10.37,2013-02-17 11:45:00,
2013-02-17 05:50:00,13.8,4.2,30.12,East,90,0.0,0.0,65,0.00,CLR,FEW,0.00,WeatherDisplay:10.37,2013-02-17 11:50:00,
2013-02-17 05:56:00,13.8,4.2,30.12,East,90,0.7,3.5,65,0.00,CLR,FEW,0.00,WeatherDisplay:10.37,2013-02-17 11:56:00,
2013-02-17 06:02:00,13.8,2.8,30.12,East,90,0.0,2.3,61,0.00,CLR,FEW,0.00,WeatherDisplay:10.37,2013-02-17 12:02:00,
2013-02-17 06:07:00,13.6,2.7,30.12,South,180,1.6,3.5,61,0.00,CLR,FEW,0.00,WeatherDisplay:10.37,2013-02-17 12:07:00,
2013-02-17 06:13:00,13.6,4.4,30.12,East,90,0.7,2.3,66,0.00,CLR,FEW,0.00,WeatherDisplay:10.37,2013-02-17 12:13:00,
2013-02-17 06:18:00,13.6,2.7,30.12,South,180,0.0,1.1,61,0.00,CLR,FEW,0.00,WeatherDisplay:10.37,2013-02-17 12:18:00,
2013-02-17 06:24:00,13.6,4.4,30.12,SE,135,1.6,3.5,66,0.00,CLR,FEW,0.00,WeatherDisplay:10.37,2013-02-17 12:24:00,
2013-02-17 06:30:00,13.6,4.4,30.11,East,90,0.0,1.1,66,0.00,CLR,FEW,0.00,WeatherDisplay:10.37,2013-02-17 12:30:00,
2013-02-17 06:35:00,13.6,2.7,30.11,SE,135,0.7,2.3,61,0.00,CLR,FEW,0.00,WeatherDisplay:10.37,2013-02-17 12:35:00,
2013-02-17 06:41:00,13.5,4.2,30.11,SE,135,0.0,2.3,66,0.00,CLR,FEW,0.00,WeatherDisplay:10.37,2013-02-17 12:41:00,
2013-02-17 06:46:00,13.5,2.5,30.11,SE,135,0.7,2.3,61,0.00,CLR,FEW,0.00,WeatherDisplay:10.37,2013-02-17 12:46:00,
2013-02-17 06:52:00,13.6,4.4,30.11,East,90,0.0,1.1,66,0.00,CLR,FEW,0.00,WeatherDisplay:10.37,2013-02-17 12:52:00,
2013-02-17 06:58:00,13.6,2.7,30.11,SE,135,0.7,3.5,61,0.00,CLR,FEW,0.00,WeatherDisplay:10.37,2013-02-17 12:58:00,
2013-02-17 07:03:00,13.6,2.7,30.12,South,180,0.0,3.5,61,0.00,CLR,FEW,0.00,WeatherDisplay:10.37,2013-02-17 13:03:00,
2013-02-17 07:09:00,13.5,2.5,30.11,SE,135,0.0,1.1,61,0.00,CLR,FEW,0.00,WeatherDisplay:10.37,2013-02-17 13:09:00,
2013-02-17 07:14:00,13.8,2.8,30.11,SE,135,0.7,2.3,61,0.00,CLR,FEW,0.00,WeatherDisplay:10.37,2013-02-17 13:14:00,
2013-02-17 07:20:00,14.0,4.7,30.11,SE,135,1.6,3.8,66,0.00,CLR,FEW,0.00,WeatherDisplay:10.37,2013-02-17 13:20:00,
2013-02-17 07:26:00,14.2,3.2,30.11,SE,135,0.7,2.3,61,0.00,CLR,FEW,0.00,WeatherDisplay:10.37,2013-02-17 13:26:00,
2013-02-17 07:31:00,14.4,3.4,30.11,East,90,1.6,3.5,61,0.00,CLR,FEW,0.00,WeatherDisplay:10.37,2013-02-17 13:31:00,
2013-02-17 07:37:00,14.7,3.7,30.11,South,180,0.7,2.3,61,0.00,CLR,FEW,0.00,WeatherDisplay:10.37,2013-02-17 13:37:00,
2013-02-17 07:42:00,14.9,4.9,30.10,East,90,1.6,3.8,64,0.00,CLR,FEW,0.00,WeatherDisplay:10.37,2013-02-17 13:42:00,
2013-02-17 07:48:00,15.6,4.5,30.10,SSE,158,0.7,3.5,61,0.00,CLR,FEW,0.00,WeatherDisplay:10.37,2013-02-17 13:48:00,
2013-02-17 07:54:00,15.4,5.1,30.10,East,90,2.2,4.6,63,0.00,CLR,FEW,0.00,WeatherDisplay:10.37,2013-02-17 13:54:00,
2013-02-17 07:59:00,15.8,5.4,30.10,SE,135,2.2,3.8,63,0.00,CLR,FEW,0.00,WeatherDisplay:10.37,2013-02-17 13:59:00,
2013-02-17 08:05:00,16.7,5.6,30.10,South,180,1.6,4.6,61,0.00,CLR,FEW,0.00,WeatherDisplay:10.37,2013-02-17 14:05:00,
2013-02-17 08:10:00,17.4,4.8,30.10,SSE,158,0.7,6.9,57,0.00,CLR,FEW,0.00,WeatherDisplay:10.37,2013-02-17 14:10:00,
2013-02-17 08:16:00,17.2,6.1,30.10,SSE,158,3.1,5.8,61,0.00,CLR,FEW,0.00,WeatherDisplay:10.37,2013-02-17 14:16:00,
2013-02-17 08:22:00,17.6,6.4,30.10,SE,135,3.1,5.8,61,0.00,CLR,FEW,0.00,WeatherDisplay:10.37,2013-02-17 14:22:00,
2013-02-17 08:27:00,17.8,4.7,30.10,South,180,3.1,5.4,56,0.00,CLR,FEW,0.00,WeatherDisplay:10.37,2013-02-17 14:27:00,
2013-02-17 08:33:00,18.0,6.8,30.10,East,90,2.2,4.6,61,0.00,CLR,FEW,0.00,WeatherDisplay:10.37,2013-02-17 14:33:00,
2013-02-17 08:38:00,18.7,7.4,30.11,SW,225,1.6,6.9,61,0.00,CLR,FEW,0.00,WeatherDisplay:10.37,2013-02-17 14:38:00,
2013-02-17 08:44:00,19.4,8.1,30.11,South,180,1.6,6.9,61,0.00,CLR,FEW,0.00,WeatherDisplay:10.37,2013-02-17 14:44:00,
2013-02-17 08:50:00,20.1,8.8,30.10,South,180,2.2,5.8,61,0.00,CLR,FEW,0.00,WeatherDisplay:10.37,2013-02-17 14:50:00,
2013-02-17 08:55:00,21.9,10.5,30.10,East,90,2.2,4.6,61,0.00,CLR,FEW,0.00,WeatherDisplay:10.37,2013-02-17 14:55:00,
2013-02-17 09:01:00,21.4,6.0,30.10,East,90,3.8,8.1,51,0.00,CLR,FEW,0.00,WeatherDisplay:10.37,2013-02-17 15:01:00,
2013-02-17 09:06:00,21.4,7.7,30.10,South,180,2.2,5.8,55,0.00,CLR,FEW,0.00,WeatherDisplay:10.37,2013-02-17 15:06:00,
2013-02-17 09:12:00,22.1,8.4,30.10,SW,225,1.6,3.5,55,0.00,CLR,FEW,0.00,WeatherDisplay:10.37,2013-02-17 15:12:00,
2013-02-17 09:18:00,22.6,7.2,30.10,SE,135,2.2,4.5,51,0.00,CLR,FEW,0.00,WeatherDisplay:10.37,2013-02-17 15:18:00,
2013-02-17 09:23:00,23.2,7.7,30.10,South,180,3.1,5.8,51,0.00,CLR,FEW,0.00,WeatherDisplay:10.37,2013-02-17 15:23:00,
2013-02-17 09:29:00,23.5,9.7,30.10,SE,135,3.1,5.8,55,0.00,CLR,FEW,0.00,WeatherDisplay:10.37,2013-02-17 15:29:00,
2013-02-17 09:34:00,24.4,7.1,30.10,NE,45,3.1,5.8,47,0.00,CLR,FEW,0.00,WeatherDisplay:10.37,2013-02-17 15:34:00,
2013-02-17 09:40:00,24.6,7.2,30.10,SW,225,2.2,6.9,47,0.00,CLR,FEW,0.00,WeatherDisplay:10.37,2013-02-17 15:40:00,
2013-02-17 09:46:00,25.3,11.4,30.11,SW,225,2.2,4.6,55,0.00,CLR,FEW,0.00,WeatherDisplay:10.37,2013-02-17 15:46:00,
2013-02-17 09:51:00,25.2,11.2,30.10,SE,135,2.2,5.8,55,0.00,CLR,FEW,0.00,WeatherDisplay:10.37,2013-02-17 15:51:00,
2013-02-17 09:57:00,25.7,11.7,30.10,SE,135,3.1,5.8,55,0.00,CLR,FEW,0.00,WeatherDisplay:10.37,2013-02-17 15:57:00,
2013-02-17 10:02:00,26.1,9.9,30.10,South,180,2.2,5.8,50,0.00,CLR,FEW,0.00,WeatherDisplay:10.37,2013-02-17 16:02:00,
2013-02-17 10:08:00,26.8,8.7,30.10,East,90,3.8,5.8,46,0.00,CLR,FEW,0.00,WeatherDisplay:10.37,2013-02-17 16:08:00,
2013-02-17 10:14:00,27.3,11.1,30.10,South,180,1.6,3.5,50,0.00,CLR,FEW,0.00,WeatherDisplay:10.37,2013-02-17 16:14:00,
2013-02-17 10:19:00,28.0,11.8,30.10,SSW,202,0.7,3.5,50,0.00,CLR,FEW,0.00,WeatherDisplay:10.37,2013-02-17 16:19:00,
2013-02-17 10:25:00,28.6,12.3,30.10,East,90,1.6,2.3,50,0.00,CLR,FEW,0.00,WeatherDisplay:10.37,2013-02-17 16:25:00,
2013-02-17 10:30:00,29.3,12.9,30.10,SE,135,3.8,5.8,50,0.00,CLR,FEW,0.00,WeatherDisplay:10.37,2013-02-17 16:30:00,
2013-02-17 10:36:00,28.4,12.1,30.09,ESE,112,3.8,8.1,50,0.00,CLR,FEW,0.00,WeatherDisplay:10.37,2013-02-17 16:36:00,
2013-02-17 10:42:00,28.9,12.6,30.10,SE,135,3.1,5.8,50,0.00,CLR,FEW,0.00,WeatherDisplay:10.37,2013-02-17 16:42:00,
2013-02-17 10:47:00,29.5,13.1,30.09,East,90,3.8,5.8,50,0.00,CLR,FEW,0.00,WeatherDisplay:10.37,2013-02-17 16:47:00,
2013-02-17 10:53:00,30.0,13.6,30.09,NE,45,2.2,4.6,50,0.00,CLR,FEW,0.00,WeatherDisplay:10.37,2013-02-17 16:53:00,
2013-02-17 10:58:00,30.6,14.1,30.09,East,90,2.2,3.5,50,0.00,CLR,FEW,0.00,WeatherDisplay:10.37,2013-02-17 16:58:00,
2013-02-17 11:04:00,30.7,10.3,30.09,SE,135,4.5,5.8,42,0.00,CLR,FEW,0.00,WeatherDisplay:10.37,2013-02-17 17:04:00,
2013-02-17 11:10:00,30.9,12.0,30.09,SE,135,2.2,3.5,45,0.00,CLR,FEW,0.00,WeatherDisplay:10.37,2013-02-17 17:10:00,
2013-02-17 11:15:00,32.0,10.9,30.08,SSE,158,3.1,6.9,41,0.00,CLR,FEW,0.00,WeatherDisplay:10.37,2013-02-17 17:15:00,
2013-02-17 11:21:00,31.8,11.8,30.09,ENE,68,0.7,4.6,43,0.00,CLR,FEW,0.00,WeatherDisplay:10.37,2013-02-17 17:21:00,
2013-02-17 11:26:00,32.7,13.7,30.08,SE,135,2.2,8.1,45,0.00,CLR,FEW,0.00,WeatherDisplay:10.37,2013-02-17 17:26:00,
2013-02-17 11:32:00,32.7,13.7,30.08,East,90,1.6,5.8,45,0.00,CLR,FEW,0.00,WeatherDisplay:10.37,2013-02-17 17:32:00,
2013-02-17 11:38:00,33.1,14.0,30.08,East,90,3.1,5.8,45,0.00,CLR,FEW,0.00,WeatherDisplay:10.37,2013-02-17 17:38:00,
2013-02-17 11:43:00,33.4,14.3,30.08,SE,135,3.1,6.0,45,0.00,CLR,FEW,0.00,WeatherDisplay:10.37,2013-02-17 17:43:00,
2013-02-17 11:49:00,33.4,12.2,30.07,South,180,2.2,8.1,41,0.00,CLR,FEW,0.00,WeatherDisplay:10.37,2013-02-17 17:49:00,
2013-02-17 11:54:00,34.2,15.0,30.07,North,0,2.2,5.8,45,0.00,CLR,FEW,0.00,WeatherDisplay:10.37,2013-02-17 17:54:00,
2013-02-17 12:00:00,33.8,12.0,30.06,South,180,3.1,5.8,40,0.00,CLR,FEW,0.00,WeatherDisplay:10.37,2013-02-17 18:00:00,
2013-02-17 12:06:00,34.2,12.3,30.06,South,180,3.1,8.1,40,0.00,CLR,FEW,0.00,WeatherDisplay:10.37,2013-02-17 18:06:00,
2013-02-17 12:11:00,33.8,12.0,30.06,SE,135,5.4,10.4,40,0.00,CLR,FEW,0.00,WeatherDisplay:10.37,2013-02-17 18:11:00,
2013-02-17 12:17:00,33.6,12.9,30.05,ESE,112,2.2,5.8,42,0.00,CLR,FEW,0.00,WeatherDisplay:10.37,2013-02-17 18:17:00,
2013-02-17 12:22:00,34.0,12.2,30.05,South,180,3.1,8.1,40,0.00,CLR,FEW,0.00,WeatherDisplay:10.37,2013-02-17 18:22:00,
2013-02-17 12:28:00,34.5,12.6,30.05,North,0,0.7,8.1,40,0.00,CLR,FEW,0.00,WeatherDisplay:10.37,2013-02-17 18:28:00,
2013-02-17 12:34:00,34.7,12.2,30.05,NE,45,3.1,6.9,39,0.00,CLR,FEW,0.00,WeatherDisplay:10.37,2013-02-17 18:34:00,
2013-02-17 12:39:00,35.1,13.1,30.05,SSW,202,2.2,4.6,40,0.00,CLR,FEW,0.00,WeatherDisplay:10.37,2013-02-17 18:39:00,
2013-02-17 12:45:00,35.6,13.6,30.03,NNE,22,0.7,3.5,40,0.00,CLR,FEW,0.00,WeatherDisplay:10.37,2013-02-17 18:45:00,
2013-02-17 12:50:00,36.3,14.3,30.03,South,180,2.2,5.8,40,0.00,CLR,FEW,0.00,WeatherDisplay:10.37,2013-02-17 18:50:00,
2013-02-17 12:56:00,36.5,13.3,30.03,South,180,2.2,6.9,38,0.00,CLR,FEW,0.00,WeatherDisplay:10.37,2013-02-17 18:56:00,
2013-02-17 13:02:00,36.9,13.6,30.03,South,180,2.2,6.9,38,0.00,CLR,FEW,0.00,WeatherDisplay:10.37,2013-02-17 19:02:00,
2013-02-17 13:07:00,37.8,15.6,30.03,SE,135,3.1,5.8,40,0.00,CLR,FEW,0.00,WeatherDisplay:10.37,2013-02-17 19:07:00,
2013-02-17 13:13:00,37.4,12.8,30.02,SE,135,1.6,5.8,36,0.00,CLR,FEW,0.00,WeatherDisplay:10.37,2013-02-17 19:13:00,
2013-02-17 13:18:00,37.4,15.2,30.02,SSE,158,3.8,6.9,40,0.00,CLR,FEW,0.00,WeatherDisplay:10.37,2013-02-17 19:18:00,
2013-02-17 13:24:00,37.0,13.1,30.02,SE,135,3.1,5.8,37,0.00,CLR,FEW,0.00,WeatherDisplay:10.37,2013-02-17 19:24:00,
2013-02-17 13:30:00,37.0,13.1,30.01,East,90,2.2,6.9,37,0.00,CLR,FEW,0.00,WeatherDisplay:10.37,2013-02-17 19:30:00,
2013-02-17 13:35:00,36.7,14.6,30.00,SE,135,3.1,8.1,40,0.00,CLR,FEW,0.00,WeatherDisplay:10.37,2013-02-17 19:35:00,
2013-02-17 13:41:00,37.9,13.9,30.00,East,90,3.1,6.9,37,0.00,CLR,FEW,0.00,WeatherDisplay:10.37,2013-02-17 19:41:00,
2013-02-17 13:46:00,38.3,16.1,30.00,NE,45,3.8,6.9,40,0.00,CLR,FEW,0.00,WeatherDisplay:10.37,2013-02-17 19:46:00,
2013-02-17 13:52:00,38.3,13.6,29.99,SE,135,3.8,7.6,36,0.00,CLR,FEW,0.00,WeatherDisplay:10.37,2013-02-17 19:52:00,
2013-02-17 13:58:00,38.7,16.4,29.99,SE,135,3.8,4.6,40,0.00,CLR,FEW,0.00,WeatherDisplay:10.37,2013-02-17 19:58:00,
2013-02-17 14:03:00,39.4,14.6,29.99,South,180,1.6,3.5,36,0.00,CLR,FEW,0.00,WeatherDisplay:10.37,2013-02-17 20:03:00,
2013-02-17 14:09:00,39.2,13.8,29.99,South,180,3.1,6.9,35,0.00,CLR,FEW,0.00,WeatherDisplay:10.37,2013-02-17 20:09:00,
2013-02-17 14:14:00,39.0,14.3,29.98,SE,135,2.2,6.9,36,0.00,CLR,FEW,0.00,WeatherDisplay:10.37,2013-02-17 20:14:00,
2013-02-17 14:20:00,39.9,15.1,29.98,NW,315,0.7,3.8,36,0.00,CLR,FEW,0.00,WeatherDisplay:10.37,2013-02-17 20:20:00,
2013-02-17 14:26:00,39.4,14.6,29.97,East,90,3.1,8.1,36,0.00,CLR,FEW,0.00,WeatherDisplay:10.37,2013-02-17 20:26:00,
2013-02-17 14:31:00,37.9,13.3,29.97,East,90,1.6,8.1,36,0.00,CLR,FEW,0.00,WeatherDisplay:10.37,2013-02-17 20:31:00,
2013-02-17 14:37:00,37.9,13.3,29.97,SE,135,4.5,8.1,36,0.00,CLR,FEW,0.00,WeatherDisplay:10.37,2013-02-17 20:37:00,
2013-02-17 14:42:00,38.5,13.2,29.96,SE,135,4.5,8.1,35,0.00,CLR,FEW,0.00,WeatherDisplay:10.37,2013-02-17 20:42:00,
2013-02-17 14:48:00,39.2,14.4,29.96,NE,45,0.7,5.8,36,0.00,CLR,FEW,0.00,WeatherDisplay:10.37,2013-02-17 20:48:00,
2013-02-17 14:54:00,39.7,14.9,29.96,South,180,5.4,8.1,36,0.00,CLR,FEW,0.00,WeatherDisplay:10.37,2013-02-17 20:54:00,
2013-02-17 14:59:00,40.3,15.4,29.96,SE,135,3.1,8.1,36,0.00,CLR,FEW,0.00,WeatherDisplay:10.37,2013-02-17 20:59:00,
2013-02-17 15:05:00,39.2,12.5,29.95,NE,45,5.4,9.2,33,0.00,CLR,FEW,0.00,WeatherDisplay:10.37,2013-02-17 21:05:00,
2013-02-17 15:10:00,38.8,12.8,29.95,South,180,3.1,8.1,34,0.00,CLR,FEW,0.00,WeatherDisplay:10.37,2013-02-17 21:10:00,
2013-02-17 15:16:00,39.0,13.0,29.95,East,90,2.2,6.0,34,0.00,CLR,FEW,0.00,WeatherDisplay:10.37,2013-02-17 21:16:00,
2013-02-17 15:22:00,39.2,13.1,29.95,NW,315,4.5,8.1,34,0.00,CLR,FEW,0.00,WeatherDisplay:10.37,2013-02-17 21:22:00,
2013-02-17 15:27:00,38.3,12.3,29.95,East,90,3.1,8.1,34,0.00,CLR,FEW,0.00,WeatherDisplay:10.37,2013-02-17 21:27:00,
2013-02-17 15:33:00,38.5,12.5,29.94,East,90,1.6,4.6,34,0.00,CLR,FEW,0.00,WeatherDisplay:10.37,2013-02-17 21:33:00,
2013-02-17 15:38:00,38.3,12.3,29.95,East,90,2.2,4.6,34,0.00,CLR,FEW,0.00,WeatherDisplay:10.37,2013-02-17 21:38:00,
2013-02-17 15:44:00,37.9,12.7,29.95,East,90,3.1,5.8,35,0.00,CLR,FEW,0.00,WeatherDisplay:10.37,2013-02-17 21:44:00,
2013-02-17 15:50:00,37.2,11.4,29.94,SE,135,5.4,9.2,34,0.00,CLR,FEW,0.00,WeatherDisplay:10.37,2013-02-17 21:50:00,
2013-02-17 15:55:00,37.2,11.4,29.94,East,90,4.5,8.1,34,0.00,CLR,FEW,0.00,WeatherDisplay:10.37,2013-02-17 21:55:00,
2013-02-17 16:01:00,37.0,13.1,29.93,NNE,22,3.1,5.8,37,0.00,CLR,FEW,0.00,WeatherDisplay:10.37,2013-02-17 22:01:00,
2013-02-17 16:06:00,37.0,11.2,29.93,East,90,3.1,9.2,34,0.00,CLR,FEW,0.00,WeatherDisplay:10.37,2013-02-17 22:06:00,
2013-02-17 16:12:00,37.4,14.1,29.93,East,90,1.6,6.9,38,0.00,CLR,FEW,0.00,WeatherDisplay:10.37,2013-02-17 22:12:00,
2013-02-17 16:18:00,37.0,13.7,29.93,SE,135,2.2,9.2,38,0.00,CLR,FEW,0.00,WeatherDisplay:10.37,2013-02-17 22:18:00,
2013-02-17 16:23:00,37.0,11.2,29.93,East,90,4.5,8.1,34,0.00,CLR,FEW,0.00,WeatherDisplay:10.37,2013-02-17 22:23:00,
2013-02-17 16:29:00,36.7,14.0,29.92,SE,135,3.8,6.0,39,0.00,CLR,FEW,0.00,WeatherDisplay:10.37,2013-02-17 22:29:00,
2013-02-17 16:34:00,36.3,10.6,29.92,East,90,5.4,9.2,34,0.00,CLR,FEW,0.00,WeatherDisplay:10.37,2013-02-17 22:34:00,
2013-02-17 16:40:00,36.1,10.4,29.91,SSW,202,3.8,12.7,34,0.00,CLR,FEW,0.00,WeatherDisplay:10.37,2013-02-17 22:40:00,
2013-02-17 16:46:00,35.6,14.2,29.91,SE,135,2.2,6.9,41,0.00,CLR,FEW,0.00,WeatherDisplay:10.37,2013-02-17 22:46:00,
2013-02-17 16:51:00,35.4,9.8,29.91,South,180,2.2,5.8,34,0.00,CLR,FEW,0.00,WeatherDisplay:10.37,2013-02-17 22:51:00,
2013-02-17 16:57:00,35.2,14.4,29.91,SE,135,3.8,9.2,42,0.00,CLR,FEW,0.00,WeatherDisplay:10.37,2013-02-17 22:57:00,
2013-02-17 17:02:00,34.9,11.8,29.91,East,90,1.6,5.8,38,0.00,CLR,FEW,0.00,WeatherDisplay:10.37,2013-02-17 23:02:00,
2013-02-17 17:08:00,34.7,14.5,29.91,East,90,5.4,7.6,43,0.00,CLR,FEW,0.00,WeatherDisplay:10.37,2013-02-17 23:08:00,
2013-02-17 17:14:00,34.7,14.5,29.91,North,0,3.1,5.8,43,0.00,CLR,FEW,0.00,WeatherDisplay:10.37,2013-02-17 23:14:00,
2013-02-17 17:19:00,34.5,11.5,29.92,WNW,292,3.1,6.9,38,0.00,CLR,FEW,0.00,WeatherDisplay:10.37,2013-02-17 23:19:00,
2013-02-17 17:25:00,34.5,14.8,29.92,East,90,4.5,8.3,44,0.00,CLR,FEW,0.00,WeatherDisplay:10.37,2013-02-17 23:25:00,
2013-02-17 17:30:00,34.3,14.7,29.92,SSE,158,3.8,5.8,44,0.00,CLR,FEW,0.00,WeatherDisplay:10.37,2013-02-17 23:30:00,
2013-02-17 17:36:00,34.2,11.2,29.92,ESE,112,3.1,5.8,38,0.00,CLR,FEW,0.00,WeatherDisplay:10.37,2013-02-17 23:36:00,
2013-02-17 17:42:00,34.2,11.2,29.91,South,180,1.6,3.5,38,0.00,CLR,FEW,0.00,WeatherDisplay:10.37,2013-02-17 23:42:00,
2013-02-17 17:47:00,33.8,10.8,29.91,South,180,3.1,5.8,38,0.00,CLR,FEW,0.00,WeatherDisplay:10.37,2013-02-17 23:47:00,
2013-02-17 17:53:00,33.8,10.8,29.91,NE,45,1.6,3.5,38,0.00,CLR,FEW,0.00,WeatherDisplay:10.37,2013-02-17 23:53:00,
2013-02-17 17:58:00,33.6,10.7,29.91,East,90,3.8,8.1,38,0.00,CLR,FEW,0.00,WeatherDisplay:10.37,2013-02-17 23:58:00,
2013-02-17 18:04:00,33.6,15.5,29.90,SE,135,2.2,10.4,47,0.00,CLR,FEW,0.00,WeatherDisplay:10.37,2013-02-18 00:04:00,
2013-02-17 18:10:00,33.6,13.5,29.91,East,90,2.2,8.1,43,0.00,CLR,FEW,0.00,WeatherDisplay:10.37,2013-02-18 00:10:00,
2013-02-17 18:15:00,33.4,13.3,29.90,SE,135,3.1,5.8,43,0.00,CLR,FEW,0.00,WeatherDisplay:10.37,2013-02-18 00:15:00,
2013-02-17 18:21:00,33.3,16.1,29.90,SE,135,3.8,8.3,49,0.00,CLR,FEW,0.00,WeatherDisplay:10.37,2013-02-18 00:21:00,
2013-02-17 18:26:00,33.3,16.1,29.90,South,180,3.8,6.0,49,0.00,CLR,FEW,0.00,WeatherDisplay:10.37,2013-02-18 00:26:00,
2013-02-17 18:32:00,33.3,16.1,29.90,SE,135,3.8,6.0,49,0.00,CLR,FEW,0.00,WeatherDisplay:10.37,2013-02-18 00:32:00,
2013-02-17 18:38:00,33.4,13.3,29.90,SSE,158,3.1,5.8,43,0.00,CLR,FEW,0.00,WeatherDisplay:10.37,2013-02-18 00:38:00,
2013-02-17 18:43:00,33.4,13.3,29.90,SE,135,2.2,8.1,43,0.00,CLR,FEW,0.00,WeatherDisplay:10.37,2013-02-18 00:43:00,
2013-02-17 18:49:00,33.3,13.1,29.89,East,90,3.1,5.8,43,0.00,CLR,FEW,0.00,WeatherDisplay:10.37,2013-02-18 00:49:00,
2013-02-17 18:54:00,33.3,13.1,29.89,East,90,1.6,6.9,43,0.00,CLR,FEW,0.00,WeatherDisplay:10.37,2013-02-18 00:54:00,
2013-02-17 19:00:00,33.3,16.1,29.89,South,180,1.6,5.8,49,0.00,CLR,FEW,0.00,WeatherDisplay:10.37,2013-02-18 01:00:00,
2013-02-17 19:06:00,33.3,13.1,29.88,East,90,2.2,5.8,43,0.00,CLR,FEW,0.00,WeatherDisplay:10.37,2013-02-18 01:06:00,
2013-02-17 19:11:00,33.1,13.0,29.88,East,90,2.2,8.1,43,0.00,CLR,FEW,0.00,WeatherDisplay:10.37,2013-02-18 01:11:00,
2013-02-17 19:17:00,33.1,13.0,29.89,South,180,4.5,8.1,43,0.00,CLR,FEW,0.00,WeatherDisplay:10.37,2013-02-18 01:17:00,
2013-02-17 19:22:00,33.1,16.4,29.89,ESE,112,4.5,6.9,50,0.00,CLR,FEW,0.00,WeatherDisplay:10.37,2013-02-18 01:22:00,
2013-02-17 19:28:00,33.3,13.1,29.89,SE,135,1.6,5.8,43,0.00,CLR,FEW,0.00,WeatherDisplay:10.37,2013-02-18 01:28:00,
2013-02-17 19:34:00,33.1,13.0,29.89,East,90,0.7,3.5,43,0.00,CLR,FEW,0.00,WeatherDisplay:10.37,2013-02-18 01:34:00,
2013-02-17 19:39:00,33.1,16.4,29.88,East,90,4.5,10.4,50,0.00,CLR,FEW,0.00,WeatherDisplay:10.37,2013-02-18 01:39:00,
2013-02-17 19:45:00,33.1,16.4,29.88,SE,135,1.6,4.6,50,0.00,CLR,FEW,0.00,WeatherDisplay:10.37,2013-02-18 01:45:00,
2013-02-17 19:50:00,32.9,16.7,29.88,ENE,68,2.2,6.9,51,0.00,CLR,FEW,0.00,WeatherDisplay:10.37,2013-02-18 01:50:00,
2013-02-17 19:56:00,32.9,12.8,29.87,South,180,2.2,4.6,43,0.00,CLR,FEW,0.00,WeatherDisplay:10.37,2013-02-18 01:56:00,
2013-02-17 20:02:00,32.9,16.7,29.87,South,180,6.9,12.1,51,0.00,CLR,FEW,0.00,WeatherDisplay:10.37,2013-02-18 02:02:00,
2013-02-17 20:07:00,32.9,13.9,29.87,South,180,6.0,11.5,45,0.00,CLR,FEW,0.00,WeatherDisplay:10.37,2013-02-18 02:07:00,
2013-02-17 20:13:00,32.9,13.9,29.87,ESE,112,3.8,6.9,45,0.00,CLR,FEW,0.00,WeatherDisplay:10.37,2013-02-18 02:13:00,
2013-02-17 20:18:00,32.9,13.9,29.88,SE,135,1.6,5.8,45,0.00,CLR,FEW,0.00,WeatherDisplay:10.37,2013-02-18 02:18:00,
2013-02-17 20:24:00,32.7,13.7,29.87,SE,135,3.8,10.4,45,0.00,CLR,FEW,0.00,WeatherDisplay:10.37,2013-02-18 02:24:00,
2013-02-17 20:30:00,32.7,13.7,29.87,West,270,0.7,3.5,45,0.00,CLR,FEW,0.00,WeatherDisplay:10.37,2013-02-18 02:30:00,
2013-02-17 20:35:00,32.7,13.7,29.87,SE,135,3.1,5.8,45,0.00,CLR,FEW,0.00,WeatherDisplay:10.37,2013-02-18 02:35:00,
2013-02-17 20:41:00,32.7,17.5,29.87,SE,135,3.1,5.8,53,0.00,CLR,FEW,0.00,WeatherDisplay:10.37,2013-02-18 02:41:00,
2013-02-17 20:46:00,32.7,13.7,29.87,East,90,1.6,8.1,45,0.00,CLR,FEW,0.00,WeatherDisplay:10.37,2013-02-18 02:46:00,
2013-02-17 20:52:00,32.7,17.9,29.87,South,180,3.1,4.6,54,0.00,CLR,FEW,0.00,WeatherDisplay:10.37,2013-02-18 02:52:00,
2013-02-17 20:58:00,32.7,17.9,29.87,SW,225,0.7,2.3,54,0.00,CLR,FEW,0.00,WeatherDisplay:10.37,2013-02-18 02:58:00,
2013-02-17 21:03:00,32.5,15.0,29.86,North,0,4.5,8.1,48,0.00,CLR,FEW,0.00,WeatherDisplay:10.37,2013-02-18 03:03:00,
2013-02-17 21:09:00,32.5,18.1,29.86,South,180,3.8,5.4,55,0.00,CLR,FEW,0.00,WeatherDisplay:10.37,2013-02-18 03:09:00,
2013-02-17 21:14:00,32.7,15.2,29.86,South,180,1.6,9.2,48,0.00,CLR,FEW,0.00,WeatherDisplay:10.37,2013-02-18 03:14:00,
2013-02-17 21:20:00,32.7,15.2,29.85,NW,315,1.6,6.9,48,0.00,CLR,FEW,0.00,WeatherDisplay:10.37,2013-02-18 03:20:00,
2013-02-17 21:26:00,32.7,18.3,29.85,South,180,3.8,7.6,55,0.00,CLR,FEW,0.00,WeatherDisplay:10.37,2013-02-18 03:26:00,
2013-02-17 21:31:00,32.7,15.2,29.85,SE,135,1.6,5.8,48,0.00,CLR,FEW,0.00,WeatherDisplay:10.37,2013-02-18 03:31:00,
2013-02-17 21:37:00,32.7,15.2,29.85,SE,135,4.5,10.4,48,0.00,CLR,FEW,0.00,WeatherDisplay:10.37,2013-02-18 03:37:00,
2013-02-17 21:42:00,32.7,15.2,29.84,NE,45,0.0,8.1,48,0.00,CLR,FEW,0.00,WeatherDisplay:10.37,2013-02-18 03:42:00,
2013-02-17 21:48:00,32.7,18.3,29.84,East,90,3.1,10.4,55,0.00,CLR,FEW,0.00,WeatherDisplay:10.37,2013-02-18 03:48:00,
2013-02-17 21:54:00,32.7,15.2,29.84,East,90,1.6,3.5,48,0.00,CLR,FEW,0.00,WeatherDisplay:10.37,2013-02-18 03:54:00,
2013-02-17 21:59:00,32.7,15.2,29.83,East,90,2.2,4.6,48,0.00,CLR,FEW,0.00,WeatherDisplay:10.37,2013-02-18 03:59:00,
2013-02-17 22:05:00,32.7,18.3,29.83,SE,135,1.6,6.9,55,0.00,CLR,FEW,0.00,WeatherDisplay:10.37,2013-02-18 04:05:00,
2013-02-17 22:10:00,32.7,15.2,29.83,SSE,158,2.2,6.0,48,0.00,CLR,FEW,0.00,WeatherDisplay:10.37,2013-02-18 04:10:00,
2013-02-17 22:16:00,32.9,18.5,29.83,South,180,3.1,7.6,55,0.00,CLR,FEW,0.00,WeatherDisplay:10.37,2013-02-18 04:16:00,
2013-02-17 22:22:00,32.7,15.2,29.83,SE,135,2.2,4.6,48,0.00,CLR,FEW,0.00,WeatherDisplay:10.37,2013-02-18 04:22:00,
2013-02-17 22:27:00,32.9,15.3,29.82,South,180,3.8,8.3,48,0.00,CLR,FEW,0.00,WeatherDisplay:10.37,2013-02-18 04:27:00,
2013-02-17 22:33:00,32.9,15.3,29.82,SSE,158,1.6,9.2,48,0.00,CLR,FEW,0.00,WeatherDisplay:10.37,2013-02-18 04:33:00,
2013-02-17 22:38:00,32.9,15.3,29.82,SSE,158,1.6,3.8,48,0.00,CLR,FEW,0.00,WeatherDisplay:10.37,2013-02-18 04:38:00,
2013-02-17 22:44:00,32.7,15.2,29.82,East,90,1.6,8.1,48,0.00,CLR,FEW,0.00,WeatherDisplay:10.37,2013-02-18 04:44:00,
2013-02-17 22:50:00,32.7,15.2,29.82,SE,135,1.6,10.4,48,0.00,CLR,FEW,0.00,WeatherDisplay:10.37,2013-02-18 04:50:00,
2013-02-17 22:55:00,32.5,15.0,29.81,ENE,68,1.6,5.8,48,0.00,CLR,FEW,0.00,WeatherDisplay:10.37,2013-02-18 04:55:00,
2013-02-17 23:00:00,32.5,18.6,29.81,NE,45,3.1,6.0,56,0.00,CLR,FEW,0.00,WeatherDisplay:10.37,2013-02-18 05:00:00,
2013-02-17 23:02:00,32.5,15.0,29.81,NE,45,3.1,5.8,48,0.00,CLR,FEW,0.00,WeatherDisplay:10.37,2013-02-18 05:02:00,
2013-02-17 23:03:00,32.5,15.0,29.81,NE,45,3.1,5.8,48,0.00,CLR,FEW,0.00,WeatherDisplay:10.37,2013-02-18 05:03:00,
2013-02-17 23:06:00,32.5,18.6,29.81,NE,45,3.1,6.0,56,0.00,CLR,FEW,0.00,WeatherDisplay:10.37,2013-02-18 05:06:00,
2013-02-17 23:11:00,32.5,19.0,29.81,East,90,2.2,5.8,57,0.00,CLR,FEW,0.00,WeatherDisplay:10.37,2013-02-18 05:11:00,
2013-02-17 23:17:00,32.5,19.0,29.81,South,180,2.2,5.8,57,0.00,CLR,FEW,0.00,WeatherDisplay:10.37,2013-02-18 05:17:00,
2013-02-17 23:22:00,32.5,15.0,29.81,SW,225,3.1,8.1,48,0.00,CLR,FEW,0.00,WeatherDisplay:10.37,2013-02-18 05:22:00,
2013-02-17 23:28:00,32.7,19.1,29.81,SW,225,1.6,5.8,57,0.00,CLR,FEW,0.00,WeatherDisplay:10.37,2013-02-18 05:28:00,
2013-02-17 23:34:00,32.7,15.2,29.80,SSE,158,3.1,8.1,48,0.00,CLR,FEW,0.00,WeatherDisplay:10.37,2013-02-18 05:34:00,
2013-02-17 23:39:00,32.5,15.0,29.79,East,90,0.7,8.1,48,0.00,CLR,FEW,0.00,WeatherDisplay:10.37,2013-02-18 05:39:00,
2013-02-17 23:45:00,32.5,19.4,29.79,NW,315,2.2,9.2,58,0.00,CLR,FEW,0.00,WeatherDisplay:10.37,2013-02-18 05:45:00,
2013-02-17 23:50:00,32.7,20.0,29.79,South,180,1.6,5.8,59,0.00,CLR,FEW,0.00,WeatherDisplay:10.37,2013-02-18 05:50:00,
2013-02-17 23:56:00,32.7,20.0,29.79,East,90,3.8,6.9,59,0.00,CLR,FEW,0.00,WeatherDisplay:10.37,2013-02-18 05:56:00,